sensor_id;sensor_type;location;lat;lon;timestamp;temperature;humidity
11617;DHT22;5864;52.998;9.068;2022-11-21T00:00:13;-0.40;99.90
11617;DHT22;5864;52.998;9.068;2022-11-21T00:02:40;-0.40;99.90
11617;DHT22;5864;52.998;9.068;2022-11-21T00:05:08;-0.40;99.90
11617;DHT22;5864;52.998;9.068;2022-11-21T00:07:35;-0.50;99.90
11617;DHT22;5864;52.998;9.068;2022-11-21T00:10:05;-0.50;99.90
11617;DHT22;5864;52.998;9.068;2022-11-21T00:12:32;-0.50;99.90
11617;DHT22;5864;52.998;9.068;2022-11-21T00:15:00;0.80;99.90
11617;DHT22;5864;52.998;9.068;2022-11-21T00:17:27;-0.50;99.90
11617;DHT22;5864;52.998;9.068;2022-11-21T00:19:55;-0.60;99.90
11617;DHT22;5864;52.998;9.068;2022-11-21T00:22:22;-0.60;99.90
11617;DHT22;5864;52.998;9.068;2022-11-21T00:24:50;-0.60;99.90
11617;DHT22;5864;52.998;9.068;2022-11-21T00:27:18;-0.60;99.90
11617;DHT22;5864;52.998;9.068;2022-11-21T00:29:46;-0.60;99.90
11617;DHT22;5864;52.998;9.068;2022-11-21T00:32:13;-0.60;99.90
11617;DHT22;5864;52.998;9.068;2022-11-21T00:34:41;-0.60;99.90
11617;DHT22;5864;52.998;9.068;2022-11-21T00:37:08;-0.60;99.90
11617;DHT22;5864;52.998;9.068;2022-11-21T00:39:36;-0.60;99.90
11617;DHT22;5864;52.998;9.068;2022-11-21T00:42:03;-0.60;99.90
11617;DHT22;5864;52.998;9.068;2022-11-21T00:44:32;-0.60;99.90
11617;DHT22;5864;52.998;9.068;2022-11-21T00:46:59;-0.60;99.90
11617;DHT22;5864;52.998;9.068;2022-11-21T00:49:27;-0.70;99.90
11617;DHT22;5864;52.998;9.068;2022-11-21T00:51:54;-0.70;99.90
11617;DHT22;5864;52.998;9.068;2022-11-21T00:54:22;-2.40;99.90
11617;DHT22;5864;52.998;9.068;2022-11-21T00:56:49;-0.70;99.90
11617;DHT22;5864;52.998;9.068;2022-11-21T00:59:17;-0.70;99.90
11617;DHT22;5864;52.998;9.068;2022-11-21T01:01:46;-0.80;99.90
11617;DHT22;5864;52.998;9.068;2022-11-21T01:04:13;-0.10;99.90
11617;DHT22;5864;52.998;9.068;2022-11-21T01:06:41;-0.80;99.90
11617;DHT22;5864;52.998;9.068;2022-11-21T01:09:08;-0.80;99.90
11617;DHT22;5864;52.998;9.068;2022-11-21T01:11:36;-0.70;99.90
11617;DHT22;5864;52.998;9.068;2022-11-21T01:14:03;-0.80;99.90
11617;DHT22;5864;52.998;9.068;2022-11-21T01:16:31;-0.80;99.90
11617;DHT22;5864;52.998;9.068;2022-11-21T01:19:00;-0.90;99.90
11617;DHT22;5864;52.998;9.068;2022-11-21T01:21:29;-0.80;99.90
11617;DHT22;5864;52.998;9.068;2022-11-21T01:23:58;-0.80;99.90
11617;DHT22;5864;52.998;9.068;2022-11-21T01:26:27;-0.70;99.90
11617;DHT22;5864;52.998;9.068;2022-11-21T01:28:56;-0.70;99.90
11617;DHT22;5864;52.998;9.068;2022-11-21T01:31:26;-0.70;99.90
11617;DHT22;5864;52.998;9.068;2022-11-21T01:33:56;-0.70;99.90
11617;DHT22;5864;52.998;9.068;2022-11-21T01:36:26;-0.70;99.90
11617;DHT22;5864;52.998;9.068;2022-11-21T01:38:55;-0.70;99.90
11617;DHT22;5864;52.998;9.068;2022-11-21T01:41:24;-0.80;99.90
11617;DHT22;5864;52.998;9.068;2022-11-21T01:43:53;-0.80;99.90
11617;DHT22;5864;52.998;9.068;2022-11-21T01:46:21;-0.80;99.90
11617;DHT22;5864;52.998;9.068;2022-11-21T01:48:53;-0.80;99.90
11617;DHT22;5864;52.998;9.068;2022-11-21T01:51:27;-0.90;99.90
11617;DHT22;5864;52.998;9.068;2022-11-21T01:54:02;-0.80;99.90
11617;DHT22;5864;52.998;9.068;2022-11-21T01:56:34;-0.90;99.90
11617;DHT22;5864;52.998;9.068;2022-11-21T01:59:03;-0.90;99.90
11617;DHT22;5864;52.998;9.068;2022-11-21T02:01:33;-0.90;99.90
11617;DHT22;5864;52.998;9.068;2022-11-21T02:04:02;-0.90;99.90
11617;DHT22;5864;52.998;9.068;2022-11-21T02:06:32;-0.90;99.90
11617;DHT22;5864;52.998;9.068;2022-11-21T02:09:03;-0.90;99.90
11617;DHT22;5864;52.998;9.068;2022-11-21T02:11:35;-1.00;99.90
11617;DHT22;5864;52.998;9.068;2022-11-21T02:14:04;-1.00;99.90
11617;DHT22;5864;52.998;9.068;2022-11-21T02:16:32;-1.00;99.90
11617;DHT22;5864;52.998;9.068;2022-11-21T02:18:59;-1.00;99.90
11617;DHT22;5864;52.998;9.068;2022-11-21T02:21:39;-1.00;99.90
11617;DHT22;5864;52.998;9.068;2022-11-21T02:24:15;-1.10;99.90
11617;DHT22;5864;52.998;9.068;2022-11-21T02:26:47;-1.10;99.90
11617;DHT22;5864;52.998;9.068;2022-11-21T02:29:15;-1.10;99.90
11617;DHT22;5864;52.998;9.068;2022-11-21T02:31:43;-1.00;99.90
11617;DHT22;5864;52.998;9.068;2022-11-21T02:34:10;-1.00;99.90
11617;DHT22;5864;52.998;9.068;2022-11-21T02:36:40;-1.00;99.90
11617;DHT22;5864;52.998;9.068;2022-11-21T02:39:12;-1.00;99.90
11617;DHT22;5864;52.998;9.068;2022-11-21T02:41:43;-1.10;99.90
11617;DHT22;5864;52.998;9.068;2022-11-21T02:44:19;-1.20;99.90
11617;DHT22;5864;52.998;9.068;2022-11-21T02:46:49;-1.20;99.90
11617;DHT22;5864;52.998;9.068;2022-11-21T02:49:23;-1.20;99.90
11617;DHT22;5864;52.998;9.068;2022-11-21T02:51:54;-1.20;99.90
11617;DHT22;5864;52.998;9.068;2022-11-21T02:54:22;-1.30;99.90
11617;DHT22;5864;52.998;9.068;2022-11-21T02:56:49;-1.30;99.90
11617;DHT22;5864;52.998;9.068;2022-11-21T02:59:18;-1.40;99.90
11617;DHT22;5864;52.998;9.068;2022-11-21T03:01:45;-1.40;99.90
11617;DHT22;5864;52.998;9.068;2022-11-21T03:04:13;-1.40;99.90
11617;DHT22;5864;52.998;9.068;2022-11-21T03:06:40;-1.50;99.90
11617;DHT22;5864;52.998;9.068;2022-11-21T03:09:08;-1.50;99.90
11617;DHT22;5864;52.998;9.068;2022-11-21T03:11:37;-1.60;99.90
11617;DHT22;5864;52.998;9.068;2022-11-21T03:14:05;-1.60;99.90
11617;DHT22;5864;52.998;9.068;2022-11-21T03:16:34;-1.60;99.90
11617;DHT22;5864;52.998;9.068;2022-11-21T03:19:01;-1.70;99.90
11617;DHT22;5864;52.998;9.068;2022-11-21T03:21:29;-1.70;99.90
11617;DHT22;5864;52.998;9.068;2022-11-21T03:23:56;-1.70;99.90
11617;DHT22;5864;52.998;9.068;2022-11-21T03:26:24;-1.70;99.90
11617;DHT22;5864;52.998;9.068;2022-11-21T03:28:51;-1.70;99.90
11617;DHT22;5864;52.998;9.068;2022-11-21T03:31:18;-1.70;99.90
11617;DHT22;5864;52.998;9.068;2022-11-21T03:33:47;-1.70;99.90
11617;DHT22;5864;52.998;9.068;2022-11-21T03:36:15;-1.70;99.90
11617;DHT22;5864;52.998;9.068;2022-11-21T03:38:42;-1.80;99.90
11617;DHT22;5864;52.998;9.068;2022-11-21T03:41:10;-1.70;99.90
11617;DHT22;5864;52.998;9.068;2022-11-21T03:43:51;-1.70;99.90
11617;DHT22;5864;52.998;9.068;2022-11-21T03:46:19;-1.70;99.90
11617;DHT22;5864;52.998;9.068;2022-11-21T03:48:47;-1.70;99.90
11617;DHT22;5864;52.998;9.068;2022-11-21T03:51:15;-1.70;99.90
11617;DHT22;5864;52.998;9.068;2022-11-21T03:53:42;-1.70;99.90
11617;DHT22;5864;52.998;9.068;2022-11-21T03:56:10;-1.80;99.90
11617;DHT22;5864;52.998;9.068;2022-11-21T03:58:37;-1.80;99.90
11617;DHT22;5864;52.998;9.068;2022-11-21T04:01:05;-1.70;99.90
11617;DHT22;5864;52.998;9.068;2022-11-21T04:03:33;-1.70;99.90
11617;DHT22;5864;52.998;9.068;2022-11-21T04:06:02;-1.60;99.90
11617;DHT22;5864;52.998;9.068;2022-11-21T04:08:29;-1.70;99.90
11617;DHT22;5864;52.998;9.068;2022-11-21T04:10:57;-1.70;99.90
11617;DHT22;5864;52.998;9.068;2022-11-21T04:13:24;-1.70;99.90
11617;DHT22;5864;52.998;9.068;2022-11-21T04:15:52;-1.80;99.90
11617;DHT22;5864;52.998;9.068;2022-11-21T04:18:20;-1.90;99.90
11617;DHT22;5864;52.998;9.068;2022-11-21T04:20:47;-1.90;99.90
11617;DHT22;5864;52.998;9.068;2022-11-21T04:23:16;-1.80;99.90
11617;DHT22;5864;52.998;9.068;2022-11-21T04:25:43;-1.90;99.90
11617;DHT22;5864;52.998;9.068;2022-11-21T04:28:11;-1.90;99.90
11617;DHT22;5864;52.998;9.068;2022-11-21T04:30:39;-1.90;99.90
11617;DHT22;5864;52.998;9.068;2022-11-21T04:33:07;-1.90;99.90
11617;DHT22;5864;52.998;9.068;2022-11-21T04:35:34;-1.90;99.90
11617;DHT22;5864;52.998;9.068;2022-11-21T04:38:02;-1.90;99.90
11617;DHT22;5864;52.998;9.068;2022-11-21T04:40:31;-1.90;99.90
11617;DHT22;5864;52.998;9.068;2022-11-21T04:42:58;-1.90;99.90
11617;DHT22;5864;52.998;9.068;2022-11-21T04:45:26;-2.00;99.90
11617;DHT22;5864;52.998;9.068;2022-11-21T04:47:53;-2.00;99.90
11617;DHT22;5864;52.998;9.068;2022-11-21T04:50:21;-2.00;99.90
11617;DHT22;5864;52.998;9.068;2022-11-21T04:52:49;-1.90;99.90
11617;DHT22;5864;52.998;9.068;2022-11-21T04:55:17;-1.90;99.90
11617;DHT22;5864;52.998;9.068;2022-11-21T04:57:46;-1.90;99.90
11617;DHT22;5864;52.998;9.068;2022-11-21T05:00:16;-1.90;99.90
11617;DHT22;5864;52.998;9.068;2022-11-21T05:02:43;-2.00;99.90
11617;DHT22;5864;52.998;9.068;2022-11-21T05:05:11;-2.00;99.90
11617;DHT22;5864;52.998;9.068;2022-11-21T05:07:38;-2.00;99.90
11617;DHT22;5864;52.998;9.068;2022-11-21T05:10:07;-2.10;99.90
11617;DHT22;5864;52.998;9.068;2022-11-21T05:12:35;-2.10;99.90
11617;DHT22;5864;52.998;9.068;2022-11-21T05:15:21;-2.10;99.90
11617;DHT22;5864;52.998;9.068;2022-11-21T05:17:49;-2.20;99.90
11617;DHT22;5864;52.998;9.068;2022-11-21T05:20:16;-2.20;99.90
11617;DHT22;5864;52.998;9.068;2022-11-21T05:22:44;-2.20;99.90
11617;DHT22;5864;52.998;9.068;2022-11-21T05:25:15;-2.20;99.90
11617;DHT22;5864;52.998;9.068;2022-11-21T05:27:42;-2.20;99.90
11617;DHT22;5864;52.998;9.068;2022-11-21T05:30:11;-2.20;99.90
11617;DHT22;5864;52.998;9.068;2022-11-21T05:32:42;-2.20;99.90
11617;DHT22;5864;52.998;9.068;2022-11-21T05:35:10;-2.20;99.90
11617;DHT22;5864;52.998;9.068;2022-11-21T05:37:37;-2.20;99.90
11617;DHT22;5864;52.998;9.068;2022-11-21T05:40:06;-2.00;99.90
11617;DHT22;5864;52.998;9.068;2022-11-21T05:42:37;-2.00;99.90
11617;DHT22;5864;52.998;9.068;2022-11-21T05:45:23;-2.00;99.90
11617;DHT22;5864;52.998;9.068;2022-11-21T05:47:52;-2.00;99.90
11617;DHT22;5864;52.998;9.068;2022-11-21T05:50:19;-2.00;99.90
11617;DHT22;5864;52.998;9.068;2022-11-21T05:52:47;-2.10;99.90
11617;DHT22;5864;52.998;9.068;2022-11-21T05:55:14;-2.30;99.90
11617;DHT22;5864;52.998;9.068;2022-11-21T05:57:42;-2.20;99.90
11617;DHT22;5864;52.998;9.068;2022-11-21T06:00:11;-2.20;99.90
11617;DHT22;5864;52.998;9.068;2022-11-21T06:02:39;-2.20;99.90
11617;DHT22;5864;52.998;9.068;2022-11-21T06:05:25;-2.10;99.90
11617;DHT22;5864;52.998;9.068;2022-11-21T06:07:52;-2.10;99.90
11617;DHT22;5864;52.998;9.068;2022-11-21T06:10:20;-2.10;99.90
11617;DHT22;5864;52.998;9.068;2022-11-21T06:12:48;-2.20;99.90
11617;DHT22;5864;52.998;9.068;2022-11-21T06:15:15;-2.30;99.90
11617;DHT22;5864;52.998;9.068;2022-11-21T06:17:43;-2.30;99.90
11617;DHT22;5864;52.998;9.068;2022-11-21T06:20:10;-2.40;99.90
11617;DHT22;5864;52.998;9.068;2022-11-21T06:22:39;-2.40;99.90
11617;DHT22;5864;52.998;9.068;2022-11-21T06:25:08;-2.40;99.90
11617;DHT22;5864;52.998;9.068;2022-11-21T06:27:35;-2.50;99.90
11617;DHT22;5864;52.998;9.068;2022-11-21T06:30:03;-2.50;99.90
11617;DHT22;5864;52.998;9.068;2022-11-21T06:32:35;-2.50;99.90
11617;DHT22;5864;52.998;9.068;2022-11-21T06:35:03;-2.50;99.90
11617;DHT22;5864;52.998;9.068;2022-11-21T06:37:31;-2.70;99.90
11617;DHT22;5864;52.998;9.068;2022-11-21T06:40:00;-2.80;99.90
11617;DHT22;5864;52.998;9.068;2022-11-21T06:42:27;-2.80;99.90
11617;DHT22;5864;52.998;9.068;2022-11-21T06:44:55;-2.90;99.90
11617;DHT22;5864;52.998;9.068;2022-11-21T06:47:22;-2.90;99.90
11617;DHT22;5864;52.998;9.068;2022-11-21T06:49:50;-2.90;99.90
11617;DHT22;5864;52.998;9.068;2022-11-21T06:52:17;-3.00;99.90
11617;DHT22;5864;52.998;9.068;2022-11-21T06:54:45;-3.10;99.90
11617;DHT22;5864;52.998;9.068;2022-11-21T06:57:13;-3.20;99.90
11617;DHT22;5864;52.998;9.068;2022-11-21T06:59:42;-3.30;99.90
11617;DHT22;5864;52.998;9.068;2022-11-21T07:02:11;-3.30;99.90
11617;DHT22;5864;52.998;9.068;2022-11-21T07:04:38;-3.40;99.90
11617;DHT22;5864;52.998;9.068;2022-11-21T07:07:06;-3.30;99.90
11617;DHT22;5864;52.998;9.068;2022-11-21T07:09:34;-3.20;99.90
11617;DHT22;5864;52.998;9.068;2022-11-21T07:12:02;-3.20;99.90
11617;DHT22;5864;52.998;9.068;2022-11-21T07:14:45;-3.20;99.90
11617;DHT22;5864;52.998;9.068;2022-11-21T07:17:13;-3.10;99.90
11617;DHT22;5864;52.998;9.068;2022-11-21T07:19:40;-3.10;99.90
11617;DHT22;5864;52.998;9.068;2022-11-21T07:22:08;-3.20;99.90
11617;DHT22;5864;52.998;9.068;2022-11-21T07:24:35;-3.20;99.90
11617;DHT22;5864;52.998;9.068;2022-11-21T07:27:03;-3.30;99.90
11617;DHT22;5864;52.998;9.068;2022-11-21T07:29:30;-3.30;99.90
11617;DHT22;5864;52.998;9.068;2022-11-21T07:31:59;-3.40;99.90
11617;DHT22;5864;52.998;9.068;2022-11-21T07:34:27;-3.40;99.90
11617;DHT22;5864;52.998;9.068;2022-11-21T07:36:55;-3.40;99.90
11617;DHT22;5864;52.998;9.068;2022-11-21T07:39:22;-3.40;99.90
11617;DHT22;5864;52.998;9.068;2022-11-21T07:41:49;-3.40;99.90
11617;DHT22;5864;52.998;9.068;2022-11-21T07:44:17;-3.40;99.90
11617;DHT22;5864;52.998;9.068;2022-11-21T07:46:44;-3.40;99.90
11617;DHT22;5864;52.998;9.068;2022-11-21T07:49:13;-3.30;99.90
11617;DHT22;5864;52.998;9.068;2022-11-21T07:51:41;-3.20;99.90
11617;DHT22;5864;52.998;9.068;2022-11-21T07:54:08;-3.30;99.90
11617;DHT22;5864;52.998;9.068;2022-11-21T07:56:36;-3.30;99.90
11617;DHT22;5864;52.998;9.068;2022-11-21T07:59:03;-3.20;99.90
11617;DHT22;5864;52.998;9.068;2022-11-21T08:01:31;-3.30;99.90
11617;DHT22;5864;52.998;9.068;2022-11-21T08:03:58;-3.30;99.90
11617;DHT22;5864;52.998;9.068;2022-11-21T08:06:27;-3.40;99.90
11617;DHT22;5864;52.998;9.068;2022-11-21T08:08:55;-3.40;99.90
11617;DHT22;5864;52.998;9.068;2022-11-21T08:11:22;-3.40;99.90
11617;DHT22;5864;52.998;9.068;2022-11-21T08:13:50;-3.30;99.90
11617;DHT22;5864;52.998;9.068;2022-11-21T08:16:18;-3.20;99.90
11617;DHT22;5864;52.998;9.068;2022-11-21T08:18:47;-3.20;99.90
11617;DHT22;5864;52.998;9.068;2022-11-21T08:21:16;-3.20;99.90
11617;DHT22;5864;52.998;9.068;2022-11-21T08:23:45;-3.10;99.90
11617;DHT22;5864;52.998;9.068;2022-11-21T08:26:12;-3.10;99.90
11617;DHT22;5864;52.998;9.068;2022-11-21T08:28:40;-3.10;99.90
11617;DHT22;5864;52.998;9.068;2022-11-21T08:31:07;-3.10;99.90
11617;DHT22;5864;52.998;9.068;2022-11-21T08:33:35;-3.10;99.90
11617;DHT22;5864;52.998;9.068;2022-11-21T08:36:03;-3.00;99.90
11617;DHT22;5864;52.998;9.068;2022-11-21T08:38:31;-3.10;99.90
11617;DHT22;5864;52.998;9.068;2022-11-21T08:41:00;-3.20;99.90
11617;DHT22;5864;52.998;9.068;2022-11-21T08:43:44;-3.20;99.90
11617;DHT22;5864;52.998;9.068;2022-11-21T08:46:12;-3.20;99.90
11617;DHT22;5864;52.998;9.068;2022-11-21T08:48:39;-3.10;99.90
11617;DHT22;5864;52.998;9.068;2022-11-21T08:51:07;-3.00;99.90
11617;DHT22;5864;52.998;9.068;2022-11-21T08:53:34;-2.80;99.90
11617;DHT22;5864;52.998;9.068;2022-11-21T08:56:03;-2.90;99.90
11617;DHT22;5864;52.998;9.068;2022-11-21T08:58:31;-2.90;99.90
11617;DHT22;5864;52.998;9.068;2022-11-21T09:00:59;-3.00;99.90
11617;DHT22;5864;52.998;9.068;2022-11-21T09:03:27;-2.90;99.90
11617;DHT22;5864;52.998;9.068;2022-11-21T09:05:55;-2.90;99.90
11617;DHT22;5864;52.998;9.068;2022-11-21T09:08:23;-2.80;99.90
11617;DHT22;5864;52.998;9.068;2022-11-21T09:10:50;-2.60;99.90
11617;DHT22;5864;52.998;9.068;2022-11-21T09:13:19;-2.40;99.90
11617;DHT22;5864;52.998;9.068;2022-11-21T09:15:47;-2.30;99.90
11617;DHT22;5864;52.998;9.068;2022-11-21T09:18:32;-2.30;99.90
11617;DHT22;5864;52.998;9.068;2022-11-21T09:20:59;-2.10;99.90
11617;DHT22;5864;52.998;9.068;2022-11-21T09:23:27;-2.10;99.90
11617;DHT22;5864;52.998;9.068;2022-11-21T09:25:54;-2.00;99.90
11617;DHT22;5864;52.998;9.068;2022-11-21T09:28:23;-2.10;99.90
11617;DHT22;5864;52.998;9.068;2022-11-21T09:30:51;-1.80;99.90
11617;DHT22;5864;52.998;9.068;2022-11-21T09:33:18;-1.50;99.90
11617;DHT22;5864;52.998;9.068;2022-11-21T09:35:46;-1.40;99.90
11617;DHT22;5864;52.998;9.068;2022-11-21T09:38:13;-1.30;99.90
11617;DHT22;5864;52.998;9.068;2022-11-21T09:40:43;-1.20;99.90
11617;DHT22;5864;52.998;9.068;2022-11-21T09:43:29;-1.10;99.90
11617;DHT22;5864;52.998;9.068;2022-11-21T09:46:07;-1.10;99.90
11617;DHT22;5864;52.998;9.068;2022-11-21T09:48:42;-1.10;99.90
11617;DHT22;5864;52.998;9.068;2022-11-21T09:51:14;-1.00;99.90
11617;DHT22;5864;52.998;9.068;2022-11-21T09:53:50;-0.90;99.90
11617;DHT22;5864;52.998;9.068;2022-11-21T09:56:20;-0.80;99.90
11617;DHT22;5864;52.998;9.068;2022-11-21T09:59:04;-0.60;99.90
11617;DHT22;5864;52.998;9.068;2022-11-21T10:01:33;-0.60;99.90
11617;DHT22;5864;52.998;9.068;2022-11-21T10:04:01;-0.60;99.90
11617;DHT22;5864;52.998;9.068;2022-11-21T10:06:31;-0.50;99.90
11617;DHT22;5864;52.998;9.068;2022-11-21T10:09:07;-0.40;99.90
11617;DHT22;5864;52.998;9.068;2022-11-21T10:11:42;-0.40;99.90
11617;DHT22;5864;52.998;9.068;2022-11-21T10:14:39;-0.50;99.90
11617;DHT22;5864;52.998;9.068;2022-11-21T10:17:17;-0.60;99.90
11617;DHT22;5864;52.998;9.068;2022-11-21T10:19:58;-0.60;99.90
11617;DHT22;5864;52.998;9.068;2022-11-21T10:22:40;-0.60;99.90
11617;DHT22;5864;52.998;9.068;2022-11-21T10:25:13;-0.70;99.90
11617;DHT22;5864;52.998;9.068;2022-11-21T10:27:45;-0.70;99.90
11617;DHT22;5864;52.998;9.068;2022-11-21T10:30:16;-0.60;99.90
11617;DHT22;5864;52.998;9.068;2022-11-21T10:32:47;-0.60;99.90
11617;DHT22;5864;52.998;9.068;2022-11-21T10:35:19;-0.60;99.90
11617;DHT22;5864;52.998;9.068;2022-11-21T10:37:50;-0.50;99.90
11617;DHT22;5864;52.998;9.068;2022-11-21T10:40:26;-0.40;99.90
11617;DHT22;5864;52.998;9.068;2022-11-21T10:42:59;-0.30;99.90
11617;DHT22;5864;52.998;9.068;2022-11-21T10:45:49;-0.20;99.90
11617;DHT22;5864;52.998;9.068;2022-11-21T10:48:16;-0.30;99.90
11617;DHT22;5864;52.998;9.068;2022-11-21T10:50:59;-0.30;99.90
11617;DHT22;5864;52.998;9.068;2022-11-21T10:53:30;-0.30;99.90
11617;DHT22;5864;52.998;9.068;2022-11-21T10:56:17;-0.20;99.90
11617;DHT22;5864;52.998;9.068;2022-11-21T10:58:47;-0.10;99.90
11617;DHT22;5864;52.998;9.068;2022-11-21T11:01:25;0.10;99.90
11617;DHT22;5864;52.998;9.068;2022-11-21T11:04:14;0.30;99.90
11617;DHT22;5864;52.998;9.068;2022-11-21T11:06:44;0.40;99.90
11617;DHT22;5864;52.998;9.068;2022-11-21T11:09:27;0.30;99.90
11617;DHT22;5864;52.998;9.068;2022-11-21T11:12:26;0.50;99.90
11617;DHT22;5864;52.998;9.068;2022-11-21T11:15:16;0.70;99.90
11617;DHT22;5864;52.998;9.068;2022-11-21T11:17:48;2.50;99.90
11617;DHT22;5864;52.998;9.068;2022-11-21T11:20:30;0.80;99.90
11617;DHT22;5864;52.998;9.068;2022-11-21T11:23:02;1.00;99.90
11617;DHT22;5864;52.998;9.068;2022-11-21T11:25:45;1.10;99.90
11617;DHT22;5864;52.998;9.068;2022-11-21T11:28:13;1.00;99.90
11617;DHT22;5864;52.998;9.068;2022-11-21T11:30:40;1.10;99.90
11617;DHT22;5864;52.998;9.068;2022-11-21T11:33:32;1.10;99.90
11617;DHT22;5864;52.998;9.068;2022-11-21T11:36:10;1.20;99.90
11617;DHT22;5864;52.998;9.068;2022-11-21T11:38:41;1.20;99.90
11617;DHT22;5864;52.998;9.068;2022-11-21T11:41:18;1.10;99.90
11617;DHT22;5864;52.998;9.068;2022-11-21T11:43:56;1.10;99.90
11617;DHT22;5864;52.998;9.068;2022-11-21T11:46:49;1.20;99.90
11617;DHT22;5864;52.998;9.068;2022-11-21T11:49:41;1.10;99.90
11617;DHT22;5864;52.998;9.068;2022-11-21T11:52:30;1.00;99.90
11617;DHT22;5864;52.998;9.068;2022-11-21T11:55:02;1.00;99.90
11617;DHT22;5864;52.998;9.068;2022-11-21T11:57:31;1.00;99.90
11617;DHT22;5864;52.998;9.068;2022-11-21T12:00:06;1.00;99.90
11617;DHT22;5864;52.998;9.068;2022-11-21T12:02:48;0.90;99.90
11617;DHT22;5864;52.998;9.068;2022-11-21T12:05:24;0.80;99.90
11617;DHT22;5864;52.998;9.068;2022-11-21T12:08:05;0.80;99.90
11617;DHT22;5864;52.998;9.068;2022-11-21T12:10:40;0.80;99.90
11617;DHT22;5864;52.998;9.068;2022-11-21T12:13:25;0.90;99.90
11617;DHT22;5864;52.998;9.068;2022-11-21T12:15:57;0.90;99.90
11617;DHT22;5864;52.998;9.068;2022-11-21T12:18:33;1.00;99.90
11617;DHT22;5864;52.998;9.068;2022-11-21T12:21:10;0.90;99.90
11617;DHT22;5864;52.998;9.068;2022-11-21T12:23:45;0.90;99.90
11617;DHT22;5864;52.998;9.068;2022-11-21T12:26:27;1.00;99.90
11617;DHT22;5864;52.998;9.068;2022-11-21T12:29:22;1.10;99.90
11617;DHT22;5864;52.998;9.068;2022-11-21T12:32:07;1.10;99.90
11617;DHT22;5864;52.998;9.068;2022-11-21T12:34:54;1.20;99.90
11617;DHT22;5864;52.998;9.068;2022-11-21T12:37:34;1.20;99.90
11617;DHT22;5864;52.998;9.068;2022-11-21T12:40:14;1.30;99.90
11617;DHT22;5864;52.998;9.068;2022-11-21T12:42:57;1.30;99.90
11617;DHT22;5864;52.998;9.068;2022-11-21T12:45:29;1.30;99.90
11617;DHT22;5864;52.998;9.068;2022-11-21T12:48:17;1.40;99.90
11617;DHT22;5864;52.998;9.068;2022-11-21T12:51:27;1.40;99.90
11617;DHT22;5864;52.998;9.068;2022-11-21T12:57:15;1.50;99.90
11617;DHT22;5864;52.998;9.068;2022-11-21T12:59:51;1.50;99.90
11617;DHT22;5864;52.998;9.068;2022-11-21T13:02:29;1.60;99.90
11617;DHT22;5864;52.998;9.068;2022-11-21T13:04:58;1.70;99.90
11617;DHT22;5864;52.998;9.068;2022-11-21T13:07:28;1.80;99.90
11617;DHT22;5864;52.998;9.068;2022-11-21T13:09:59;1.90;99.90
11617;DHT22;5864;52.998;9.068;2022-11-21T13:12:35;1.90;99.90
11617;DHT22;5864;52.998;9.068;2022-11-21T13:15:15;2.00;99.90
11617;DHT22;5864;52.998;9.068;2022-11-21T13:17:47;2.00;99.90
11617;DHT22;5864;52.998;9.068;2022-11-21T13:20:21;2.10;99.90
11617;DHT22;5864;52.998;9.068;2022-11-21T13:22:56;2.30;99.90
11617;DHT22;5864;52.998;9.068;2022-11-21T13:25:43;2.40;99.90
11617;DHT22;5864;52.998;9.068;2022-11-21T13:28:34;2.30;99.90
11617;DHT22;5864;52.998;9.068;2022-11-21T13:33:49;2.40;99.90
11617;DHT22;5864;52.998;9.068;2022-11-21T13:36:41;2.50;99.90
11617;DHT22;5864;52.998;9.068;2022-11-21T13:39:34;2.50;99.90
11617;DHT22;5864;52.998;9.068;2022-11-21T13:42:13;2.60;99.90
11617;DHT22;5864;52.998;9.068;2022-11-21T13:48:09;2.50;99.90
11617;DHT22;5864;52.998;9.068;2022-11-21T13:54:33;2.70;99.90
11617;DHT22;5864;52.998;9.068;2022-11-21T13:57:31;2.70;99.90
11617;DHT22;5864;52.998;9.068;2022-11-21T14:00:22;2.60;99.90
11617;DHT22;5864;52.998;9.068;2022-11-21T14:03:26;2.50;99.90
11617;DHT22;5864;52.998;9.068;2022-11-21T14:06:28;2.50;99.90
11617;DHT22;5864;52.998;9.068;2022-11-21T14:09:17;2.60;99.90
11617;DHT22;5864;52.998;9.068;2022-11-21T14:11:47;2.60;99.90
11617;DHT22;5864;52.998;9.068;2022-11-21T14:14:32;2.50;99.90
11617;DHT22;5864;52.998;9.068;2022-11-21T14:17:30;2.40;99.90
11617;DHT22;5864;52.998;9.068;2022-11-21T14:20:07;2.30;99.90
11617;DHT22;5864;52.998;9.068;2022-11-21T14:22:39;2.10;99.90
11617;DHT22;5864;52.998;9.068;2022-11-21T14:25:12;2.10;99.90
11617;DHT22;5864;52.998;9.068;2022-11-21T14:27:45;2.00;99.90
11617;DHT22;5864;52.998;9.068;2022-11-21T14:30:33;1.90;99.90
11617;DHT22;5864;52.998;9.068;2022-11-21T14:33:21;1.90;99.90
11617;DHT22;5864;52.998;9.068;2022-11-21T14:35:51;1.80;99.90
11617;DHT22;5864;52.998;9.068;2022-11-21T14:38:20;1.70;99.90
11617;DHT22;5864;52.998;9.068;2022-11-21T14:40:49;1.60;99.90
11617;DHT22;5864;52.998;9.068;2022-11-21T14:43:29;1.60;99.90
11617;DHT22;5864;52.998;9.068;2022-11-21T14:45:59;1.60;99.90
11617;DHT22;5864;52.998;9.068;2022-11-21T14:48:26;1.50;99.90
11617;DHT22;5864;52.998;9.068;2022-11-21T14:50:57;1.40;99.90
11617;DHT22;5864;52.998;9.068;2022-11-21T14:53:25;1.40;99.90
11617;DHT22;5864;52.998;9.068;2022-11-21T14:55:53;1.30;99.90
11617;DHT22;5864;52.998;9.068;2022-11-21T14:58:21;1.30;99.90
11617;DHT22;5864;52.998;9.068;2022-11-21T15:01:04;1.20;99.90
11617;DHT22;5864;52.998;9.068;2022-11-21T15:03:32;1.10;99.90
11617;DHT22;5864;52.998;9.068;2022-11-21T15:06:00;1.10;99.90
11617;DHT22;5864;52.998;9.068;2022-11-21T15:08:28;1.00;99.90
11617;DHT22;5864;52.998;9.068;2022-11-21T15:10:57;1.00;99.90
11617;DHT22;5864;52.998;9.068;2022-11-21T15:13:29;0.90;99.90
11617;DHT22;5864;52.998;9.068;2022-11-21T15:16:03;0.90;99.90
11617;DHT22;5864;52.998;9.068;2022-11-21T15:18:31;0.90;99.90
11617;DHT22;5864;52.998;9.068;2022-11-21T15:21:00;0.90;99.90
11617;DHT22;5864;52.998;9.068;2022-11-21T15:23:30;0.80;99.90
11617;DHT22;5864;52.998;9.068;2022-11-21T15:25:59;0.80;99.90
11617;DHT22;5864;52.998;9.068;2022-11-21T15:28:27;0.80;99.90
11617;DHT22;5864;52.998;9.068;2022-11-21T15:31:15;0.70;99.90
11617;DHT22;5864;52.998;9.068;2022-11-21T15:33:53;0.70;99.90
11617;DHT22;5864;52.998;9.068;2022-11-21T15:36:21;0.60;99.90
11617;DHT22;5864;52.998;9.068;2022-11-21T15:38:50;0.40;99.90
11617;DHT22;5864;52.998;9.068;2022-11-21T15:41:27;0.60;99.90
11617;DHT22;5864;52.998;9.068;2022-11-21T15:44:17;0.60;99.90
11617;DHT22;5864;52.998;9.068;2022-11-21T15:46:50;0.60;99.90
11617;DHT22;5864;52.998;9.068;2022-11-21T15:49:18;0.60;99.90
11617;DHT22;5864;52.998;9.068;2022-11-21T15:51:47;0.60;99.90
11617;DHT22;5864;52.998;9.068;2022-11-21T15:54:18;0.50;99.90
11617;DHT22;5864;52.998;9.068;2022-11-21T15:56:46;0.50;99.90
11617;DHT22;5864;52.998;9.068;2022-11-21T15:59:14;0.50;99.90
11617;DHT22;5864;52.998;9.068;2022-11-21T16:01:42;0.50;99.90
11617;DHT22;5864;52.998;9.068;2022-11-21T16:04:11;0.50;99.90
11617;DHT22;5864;52.998;9.068;2022-11-21T16:06:39;0.50;99.90
11617;DHT22;5864;52.998;9.068;2022-11-21T16:09:06;0.50;99.90
11617;DHT22;5864;52.998;9.068;2022-11-21T16:11:35;0.50;99.90
11617;DHT22;5864;52.998;9.068;2022-11-21T16:14:05;0.60;99.90
11617;DHT22;5864;52.998;9.068;2022-11-21T16:16:36;0.60;99.90
11617;DHT22;5864;52.998;9.068;2022-11-21T16:19:04;0.50;99.90
11617;DHT22;5864;52.998;9.068;2022-11-21T16:21:34;0.50;99.90
11617;DHT22;5864;52.998;9.068;2022-11-21T16:24:02;0.50;99.90
11617;DHT22;5864;52.998;9.068;2022-11-21T16:26:30;0.50;99.90
11617;DHT22;5864;52.998;9.068;2022-11-21T16:28:59;0.40;99.90
11617;DHT22;5864;52.998;9.068;2022-11-21T16:31:29;0.50;99.90